Portada
METAR-TAF:

METAR-TAF

Aeroports :

Trat, Tailàndia

latitud: 12-16-28N, longitud: 102-19-08E, altitud: 32 m

Observació

L'informe es va fer fa 28 minuts, a les 10:00 UTC
Vent 9 kt del Sud-Oest
Temperatura 29°C
Humitat 79%
Pressió 1010 hPa
Visibilitat: 5000 m
boirina, fum

METAR: VTBO 261000Z 22009KT 5000 BR FU NSC 29/25 Q1010

Hora: 17:28 (10:28 UTC)

Pronòstic

L'informe es va fer fa 5 hores i 28 minuts, a les 05:00 UTC
Pronòstic vàlid del 26 a les 06 UTC al 27 a les 06 UTC
Vent 10 kt del Sud-Oest
Visibilitat: 5000 m
Escasses núvols a una alçada de 2000 ft
boirina, fum
Evolucionant progressivament
l' 26 a les 18 UTC al 26 a les 20 UTC
Vent 5 kt del Est/Nord-Est
Visibilitat: 1000 m
boirina, fum
Evolucionant progressivament
l' 27 a les 03 UTC al 27 a les 05 UTC
Vent 10 kt del Sud-Oest
Visibilitat: 5000 m
boirina, fum

TAF: VTBO 260500Z 2606/2706 23010KT 5000 BR FU FEW020 BECMG 2618/2620 07005KT 1000 BR FU BECMG 2703/2705 23010KT 5000 BR FU

Observacions i pronòstics meteorològics de més de 4000 aeroports (METAR i TAF).

Les estacions disponibles són els punts grocs i vermells al mapa.

Posi el ratolí al punt desitjat per veure el nom de l'estació.

Feu clic per veure les observacions i els pronòstics meteorològics.

Per canviar el mapa: feu clic els botons verds amb una creu de color negre per apropar; al botó verd amb un guió per allunyar la imatge; o en les fletxes verdes per a mapes adjacents.


METAR-TAF: